createdAt,value
2023-04-17T00:00:50.385Z,12.75
2023-04-17T00:03:22.990Z,12.40
2023-04-17T00:05:56.835Z,12.15
2023-04-17T00:08:28.506Z,19.37
2023-04-17T00:11:07.290Z,17.63
2023-04-17T00:13:40.445Z,14.98
2023-04-17T00:16:13.860Z,14.35
2023-04-17T00:18:45.774Z,14.23
2023-04-17T00:21:17.508Z,12.27
2023-04-17T00:23:49.636Z,13.43
2023-04-17T00:26:21.357Z,16.52
2023-04-17T00:28:53.909Z,16.88
2023-04-17T00:31:25.756Z,14.65
2023-04-17T00:33:58.854Z,16.10
2023-04-17T00:36:31.917Z,14.63
2023-04-17T00:39:03.659Z,16.05
2023-04-17T00:41:35.373Z,17.10
2023-04-17T00:44:07.155Z,16.23
2023-04-17T00:46:39.161Z,15.20
2023-04-17T00:49:11.173Z,12.98
2023-04-17T00:51:43.118Z,23.25
2023-04-17T00:54:15.381Z,20.27
2023-04-17T00:56:47.247Z,17.85
2023-04-17T00:59:19.044Z,18.23
2023-04-17T01:01:51.677Z,17.58
2023-04-17T01:04:24.051Z,18.30
2023-04-17T01:06:56.214Z,20.92
2023-04-17T01:09:28.087Z,21.73
2023-04-17T01:12:35.921Z,22.88
2023-04-17T01:15:07.963Z,19.17
2023-04-17T01:17:39.775Z,19.25
2023-04-17T01:20:11.927Z,18.55
2023-04-17T01:22:43.674Z,16.27
2023-04-17T01:25:15.420Z,19.60
2023-04-17T01:27:50.165Z,20.40
2023-04-17T01:33:00.220Z,23.65
2023-04-17T01:35:31.948Z,22.70
2023-04-17T01:38:03.833Z,24.05
2023-04-17T01:40:35.812Z,23.88
2023-04-17T01:43:07.547Z,23.48
2023-04-17T01:45:39.240Z,23.55
2023-04-17T01:48:10.974Z,19.77
2023-04-17T01:50:43.749Z,19.92
2023-04-17T01:53:15.554Z,18.30
2023-04-17T01:55:49.733Z,19.63
2023-04-17T01:58:21.468Z,21.10
2023-04-17T02:00:53.178Z,19.02
2023-04-17T02:03:25.125Z,18.73
2023-04-17T02:05:56.914Z,19.55
2023-04-17T02:08:29.788Z,18.85
2023-04-17T02:11:03.620Z,18.60
2023-04-17T02:13:36.341Z,17.52
2023-04-17T02:16:09.576Z,18.63
2023-04-17T02:18:41.491Z,15.88
2023-04-17T02:21:13.183Z,16.95
2023-04-17T02:23:44.967Z,19.35
2023-04-17T02:26:16.673Z,16.27
2023-04-17T02:28:52.073Z,24.25
2023-04-17T02:31:24.303Z,17.33
2023-04-17T02:33:56.039Z,14.93
2023-04-17T02:36:28.310Z,17.63
2023-04-17T02:39:00.161Z,16.02
2023-04-17T02:41:31.977Z,15.63
2023-04-17T02:44:03.779Z,14.77
2023-04-17T02:46:35.913Z,18.95
2023-04-17T02:49:08.182Z,16.02
2023-04-17T02:51:41.080Z,16.00
2023-04-17T02:54:12.863Z,14.23
2023-04-17T02:56:44.844Z,17.92
2023-04-17T02:59:16.686Z,16.23
2023-04-17T03:01:48.517Z,24.83
2023-04-17T03:04:23.195Z,17.35
2023-04-17T03:06:55.080Z,18.90
2023-04-17T03:09:27.602Z,18.65
2023-04-17T03:11:59.825Z,17.13
2023-04-17T03:14:31.572Z,16.52
2023-04-17T03:17:03.269Z,17.33
2023-04-17T03:19:35.401Z,17.15
2023-04-17T03:22:07.255Z,19.30
2023-04-17T03:24:38.989Z,16.33
2023-04-17T03:27:10.987Z,17.65
2023-04-17T03:29:46.736Z,18.35
2023-04-17T03:32:19.221Z,16.90
2023-04-17T03:34:51.457Z,13.52
2023-04-17T03:37:23.147Z,14.68
2023-04-17T03:39:55.729Z,15.35
2023-04-17T03:42:29.883Z,16.70
2023-04-17T03:45:03.342Z,14.70
2023-04-17T03:47:35.464Z,16.30
2023-04-17T03:50:08.420Z,21.27
2023-04-17T03:52:45.406Z,16.42
2023-04-17T03:55:17.521Z,16.52
2023-04-17T03:57:51.754Z,16.35
2023-04-17T04:00:26.102Z,18.00
2023-04-17T04:03:03.895Z,18.40
2023-04-17T04:05:42.865Z,15.65
2023-04-17T04:08:15.832Z,13.73
2023-04-17T04:10:54.460Z,15.00
2023-04-17T04:13:33.960Z,16.42
2023-04-17T04:16:08.324Z,16.48
2023-04-17T04:18:43.425Z,17.27
2023-04-17T04:21:16.950Z,16.33
2023-04-17T04:23:51.044Z,16.73
2023-04-17T04:26:25.163Z,14.48
2023-04-17T04:29:00.222Z,15.13
2023-04-17T04:31:52.763Z,17.90
2023-04-17T04:34:30.027Z,21.30
2023-04-17T04:37:02.260Z,14.20
2023-04-17T04:40:10.718Z,17.02
2023-04-17T04:42:49.736Z,17.67
2023-04-17T04:45:26.837Z,13.57
2023-04-17T04:47:59.178Z,15.45
2023-04-17T04:50:31.217Z,17.52
2023-04-17T04:53:06.508Z,16.52
2023-04-17T04:55:46.786Z,17.73
2023-04-17T04:58:18.995Z,17.15
2023-04-17T05:00:52.381Z,17.25
2023-04-17T05:03:37.349Z,18.00
2023-04-17T05:06:13.783Z,14.85
2023-04-17T05:08:52.881Z,14.95
2023-04-17T05:11:24.621Z,13.57
2023-04-17T05:13:56.532Z,13.88
2023-04-17T05:16:34.514Z,17.33
2023-04-17T05:19:06.354Z,19.75
2023-04-17T05:22:04.271Z,16.10
2023-04-17T05:24:40.094Z,15.35
2023-04-17T05:27:11.803Z,17.83
2023-04-17T05:29:43.633Z,19.92
2023-04-17T05:32:15.454Z,16.33
2023-04-17T05:34:58.463Z,15.82
2023-04-17T05:37:32.444Z,13.80
2023-04-17T05:40:07.262Z,19.50
2023-04-17T05:42:39.465Z,14.98
2023-04-17T05:45:21.449Z,15.73
2023-04-17T05:47:54.657Z,16.10
2023-04-17T05:50:26.594Z,14.85
2023-04-17T05:52:58.573Z,15.77
2023-04-17T05:55:33.954Z,12.70
2023-04-17T05:58:16.824Z,14.70
2023-04-17T06:00:56.090Z,14.88
2023-04-17T06:03:28.831Z,20.90
2023-04-17T06:06:08.768Z,15.45
2023-04-17T06:08:41.028Z,16.88
2023-04-17T06:11:13.094Z,17.63
2023-04-17T06:13:44.837Z,19.75
2023-04-17T06:16:16.923Z,19.23
2023-04-17T06:18:51.824Z,18.83
2023-04-17T06:21:23.671Z,23.98
2023-04-17T06:23:59.161Z,18.58
2023-04-17T06:26:30.932Z,15.27
2023-04-17T06:29:02.624Z,21.70
2023-04-17T06:31:37.187Z,16.92
2023-04-17T06:34:09.401Z,21.83
2023-04-17T06:36:45.624Z,19.73
2023-04-17T06:39:20.073Z,16.10
2023-04-17T06:41:52.395Z,14.55
2023-04-17T06:44:31.282Z,21.15
2023-04-17T06:47:05.883Z,14.88
2023-04-17T06:49:37.690Z,15.75
2023-04-17T06:52:09.478Z,17.92
2023-04-17T06:54:41.246Z,15.85
2023-04-17T06:57:13.018Z,13.73
2023-04-17T06:59:44.736Z,16.75
2023-04-17T07:02:16.708Z,13.27
2023-04-17T07:04:48.651Z,13.80
2023-04-17T07:07:21.189Z,14.93
2023-04-17T07:09:52.904Z,13.73
2023-04-17T07:12:24.750Z,13.98
2023-04-17T07:14:56.477Z,11.18
2023-04-17T07:17:28.203Z,11.77
2023-04-17T07:19:59.930Z,10.38
2023-04-17T07:22:31.825Z,11.43
2023-04-17T07:25:04.653Z,11.88
2023-04-17T07:27:38.355Z,12.63
2023-04-17T07:30:10.449Z,12.55
2023-04-17T07:32:42.350Z,11.07
2023-04-17T07:35:14.108Z,12.27
2023-04-17T07:37:45.872Z,10.20
2023-04-17T07:40:18.128Z,13.20
2023-04-17T07:42:49.859Z,15.50
2023-04-17T07:45:21.942Z,11.40
2023-04-17T07:47:53.841Z,8.60
2023-04-17T07:50:25.820Z,11.30
2023-04-17T07:52:58.475Z,9.40
2023-04-17T07:55:30.203Z,9.88
2023-04-17T07:58:03.962Z,8.90
2023-04-17T08:00:35.833Z,9.00
2023-04-17T08:03:07.962Z,7.85
2023-04-17T08:05:40.347Z,10.05
2023-04-17T08:08:12.077Z,12.13
2023-04-17T08:10:43.854Z,9.10
2023-04-17T08:13:15.721Z,9.80
2023-04-17T08:15:47.472Z,9.15
2023-04-17T08:18:19.190Z,7.90
2023-04-17T08:20:51.048Z,7.07
2023-04-17T08:23:22.886Z,5.47
2023-04-17T08:25:58.368Z,7.72
2023-04-17T08:28:30.285Z,7.15
2023-04-17T08:31:02.060Z,6.75
2023-04-17T08:33:33.788Z,5.70
2023-04-17T08:36:08.016Z,6.75
2023-04-17T08:38:42.133Z,5.93
2023-04-17T08:41:21.934Z,5.97
2023-04-17T08:43:54.484Z,6.75
2023-04-17T08:46:27.384Z,6.63
2023-04-17T08:48:59.199Z,6.47
2023-04-17T08:51:31.821Z,9.48
2023-04-17T08:54:03.636Z,7.55
2023-04-17T08:56:35.362Z,18.90
2023-04-17T08:59:07.281Z,5.90
2023-04-17T09:01:39.065Z,8.05
2023-04-17T09:04:11.245Z,8.15
2023-04-17T09:06:54.193Z,6.28
2023-04-17T09:09:26.539Z,6.40
2023-04-17T09:12:11.386Z,6.80
2023-04-17T09:14:43.173Z,6.55
2023-04-17T09:17:19.174Z,6.70
2023-04-17T09:20:20.084Z,6.35
2023-04-17T09:23:03.368Z,6.05
2023-04-17T09:25:35.162Z,6.95
2023-04-17T09:28:13.395Z,5.50
2023-04-17T09:30:45.172Z,9.65
2023-04-17T09:33:17.169Z,6.75
2023-04-17T09:35:51.002Z,6.32
2023-04-17T09:38:38.480Z,5.68
2023-04-17T09:41:30.043Z,6.50
2023-04-17T09:44:05.464Z,6.18
2023-04-17T09:46:40.651Z,6.38
2023-04-17T09:49:27.537Z,6.05
2023-04-17T09:51:59.783Z,5.10
2023-04-17T09:54:33.111Z,5.95
2023-04-17T09:57:08.580Z,6.60
2023-04-17T09:59:41.930Z,5.65
2023-04-17T10:02:16.426Z,8.10
2023-04-17T10:04:48.254Z,8.95
2023-04-17T10:07:20.016Z,5.95
2023-04-17T10:09:51.760Z,6.60
2023-04-17T10:12:23.826Z,5.28
2023-04-17T10:14:55.789Z,6.90
2023-04-17T10:17:32.516Z,6.07
2023-04-17T10:20:23.053Z,4.88
2023-04-17T10:22:56.335Z,5.88
2023-04-17T10:25:29.703Z,7.47
2023-04-17T10:28:02.263Z,4.75
2023-04-17T10:30:54.617Z,4.85
2023-04-17T10:33:27.449Z,4.65
2023-04-17T10:35:59.253Z,4.78
2023-04-17T10:38:33.190Z,5.15
2023-04-17T10:41:09.276Z,4.63
2023-04-17T10:43:44.091Z,3.95
2023-04-17T10:48:56.468Z,4.55
2023-04-17T10:51:29.038Z,4.03
2023-04-17T10:54:02.640Z,5.65
2023-04-17T10:56:47.329Z,5.97
2023-04-17T10:59:19.512Z,3.70
2023-04-17T11:01:52.922Z,3.65
2023-04-17T11:04:31.295Z,3.20
2023-04-17T11:07:03.228Z,5.07
2023-04-17T11:09:34.938Z,4.13
2023-04-17T11:12:06.840Z,5.00
2023-04-17T11:14:40.661Z,4.05
2023-04-17T11:17:12.430Z,4.10
2023-04-17T11:19:46.395Z,4.35
2023-04-17T11:22:19.341Z,4.55
2023-04-17T11:24:51.771Z,3.88
2023-04-17T11:27:23.447Z,3.83
2023-04-17T11:29:55.357Z,3.20
2023-04-17T11:32:27.134Z,4.70
2023-04-17T11:34:58.964Z,3.40
2023-04-17T11:37:30.690Z,3.97
2023-04-17T11:40:10.230Z,3.22
2023-04-17T11:42:45.869Z,4.80
2023-04-17T11:45:19.904Z,3.13
2023-04-17T11:47:52.544Z,2.95
2023-04-17T11:50:29.154Z,3.03
2023-04-17T11:53:02.059Z,3.92
2023-04-17T11:55:35.143Z,5.00
2023-04-17T11:58:08.353Z,4.82
2023-04-17T12:00:41.212Z,4.05
2023-04-17T12:03:36.029Z,4.15
2023-04-17T12:06:08.829Z,5.60
2023-04-17T12:08:53.428Z,3.97
2023-04-17T12:11:33.083Z,3.65
2023-04-17T12:14:12.277Z,3.15
2023-04-17T12:16:44.251Z,3.25
2023-04-17T12:19:22.483Z,3.42
2023-04-17T12:21:54.597Z,3.45
2023-04-17T12:24:26.511Z,4.97
2023-04-17T12:27:01.807Z,3.45
2023-04-17T12:29:43.744Z,3.22
2023-04-17T12:32:16.661Z,5.20
2023-04-17T12:34:48.409Z,3.67
2023-04-17T12:37:20.369Z,4.13
2023-04-17T12:39:52.089Z,4.10
2023-04-17T12:42:23.863Z,4.55
2023-04-17T12:44:55.696Z,5.82
2023-04-17T12:47:27.534Z,7.47
2023-04-17T12:49:59.280Z,6.30
2023-04-17T12:52:31.322Z,5.20
2023-04-17T12:55:04.454Z,5.43
2023-04-17T12:57:36.713Z,3.92
2023-04-17T13:00:09.615Z,4.90
2023-04-17T13:02:41.700Z,4.57
2023-04-17T13:05:13.504Z,4.63
2023-04-17T13:07:46.340Z,5.90
2023-04-17T13:10:18.196Z,6.03
2023-04-17T13:12:50.000Z,5.90
2023-04-17T13:15:21.914Z,4.65
2023-04-17T13:17:53.890Z,8.60
2023-04-17T13:20:25.881Z,4.15
2023-04-17T13:22:58.959Z,4.82
2023-04-17T13:25:31.704Z,5.38
2023-04-17T13:28:03.843Z,5.88
2023-04-17T13:30:37.243Z,5.93
2023-04-17T13:33:09.329Z,4.83
2023-04-17T13:35:41.457Z,4.75
2023-04-17T13:38:13.340Z,5.72
2023-04-17T13:40:45.130Z,5.57
2023-04-17T13:43:19.175Z,8.30
2023-04-17T13:45:52.760Z,5.88
2023-04-17T13:48:26.030Z,6.45
2023-04-17T13:50:57.858Z,6.18
2023-04-17T13:53:29.554Z,7.13
2023-04-17T13:56:01.327Z,6.20
2023-04-17T13:58:36.109Z,6.57
2023-04-17T14:01:08.939Z,5.45
2023-04-17T14:03:43.001Z,7.47
2023-04-17T14:06:19.368Z,6.28
2023-04-17T14:11:24.324Z,6.28
2023-04-17T14:13:56.263Z,7.22
2023-04-17T14:16:28.468Z,5.88
2023-04-17T14:19:12.310Z,5.75
2023-04-17T14:21:45.430Z,6.80
2023-04-17T14:24:17.234Z,7.43
2023-04-17T14:26:48.952Z,7.65
2023-04-17T14:29:21.253Z,7.40
2023-04-17T14:31:53.306Z,8.40
2023-04-17T14:34:25.352Z,9.75
2023-04-17T14:36:58.279Z,9.00
2023-04-17T14:39:31.555Z,9.25
2023-04-17T14:42:03.516Z,11.40
2023-04-17T14:44:35.375Z,11.50
2023-04-17T14:47:07.483Z,10.43
2023-04-17T14:49:39.347Z,12.80
2023-04-17T14:52:11.019Z,10.60
2023-04-17T14:54:42.820Z,10.30
2023-04-17T14:57:14.630Z,11.52
2023-04-17T14:59:46.329Z,9.70
2023-04-17T15:02:18.117Z,10.88
2023-04-17T15:04:51.783Z,11.95
2023-04-17T15:07:23.492Z,10.27
2023-04-17T15:09:56.455Z,10.50
2023-04-17T15:12:28.234Z,10.70
2023-04-17T15:15:00.090Z,10.60
2023-04-17T15:17:32.074Z,10.27
2023-04-17T15:20:05.429Z,11.52
2023-04-17T15:22:37.147Z,9.98
2023-04-17T15:25:09.139Z,11.35
2023-04-17T15:27:40.858Z,11.27
2023-04-17T15:30:13.371Z,13.85
2023-04-17T15:32:45.334Z,13.65
2023-04-17T15:35:17.231Z,14.65
2023-04-17T15:37:48.909Z,12.32
2023-04-17T15:40:21.368Z,14.35
2023-04-17T15:42:53.116Z,13.40
2023-04-17T15:45:26.198Z,15.48
2023-04-17T15:50:33.129Z,18.25
2023-04-17T15:53:05.853Z,16.60
2023-04-17T15:55:38.537Z,17.63
2023-04-17T15:58:10.671Z,16.70
2023-04-17T16:00:42.426Z,18.17
2023-04-17T16:03:14.605Z,15.95
2023-04-17T16:05:46.645Z,15.13
2023-04-17T16:08:18.390Z,16.67
2023-04-17T16:10:50.276Z,16.42
2023-04-17T16:13:21.915Z,15.93
2023-04-17T16:15:53.647Z,14.85
2023-04-17T16:18:25.359Z,16.20
2023-04-17T16:20:57.121Z,15.05
2023-04-17T16:23:29.791Z,15.25
2023-04-17T16:26:01.577Z,14.07
2023-04-17T16:28:36.414Z,13.88
2023-04-17T16:31:08.609Z,14.70
2023-04-17T16:33:40.770Z,15.07
2023-04-17T16:36:13.028Z,15.18
2023-04-17T16:38:45.873Z,15.95
2023-04-17T16:41:18.666Z,18.40
2023-04-17T16:43:50.405Z,17.80
2023-04-17T16:46:35.495Z,17.77
2023-04-17T16:49:16.712Z,18.95
2023-04-17T16:51:48.437Z,15.45
2023-04-17T16:54:21.679Z,18.15
2023-04-17T16:56:53.423Z,15.68
2023-04-17T16:59:25.180Z,15.32
2023-04-17T17:01:57.063Z,17.13
2023-04-17T17:04:28.893Z,17.42
2023-04-17T17:07:00.803Z,17.45
2023-04-17T17:09:32.581Z,16.83
2023-04-17T17:12:04.621Z,16.83
2023-04-17T17:14:36.397Z,16.05
2023-04-17T17:17:08.320Z,17.33
2023-04-17T17:19:40.062Z,16.00
2023-04-17T17:22:11.941Z,18.50
2023-04-17T17:24:43.707Z,15.50
2023-04-17T17:27:15.738Z,16.48
2023-04-17T17:29:47.512Z,16.52
2023-04-17T17:32:22.507Z,16.17
2023-04-17T17:34:54.513Z,18.83
2023-04-17T17:37:27.486Z,18.42
2023-04-17T17:39:59.248Z,21.70
2023-04-17T17:42:32.422Z,17.88
2023-04-17T17:45:06.112Z,17.35
2023-04-17T17:47:38.079Z,20.67
2023-04-17T17:50:11.106Z,16.45
2023-04-17T17:52:43.712Z,17.20
2023-04-17T17:55:16.122Z,18.85
2023-04-17T17:57:49.667Z,19.67
2023-04-17T18:00:21.728Z,20.77
2023-04-17T18:02:55.719Z,19.63
2023-04-17T18:05:27.456Z,18.33
2023-04-17T18:07:59.281Z,20.58
2023-04-17T18:13:05.934Z,19.95
2023-04-17T18:15:37.794Z,20.42
2023-04-17T18:18:10.297Z,20.17
2023-04-17T18:20:42.158Z,22.38
2023-04-17T18:23:18.427Z,23.08
2023-04-17T18:26:01.030Z,28.58
2023-04-17T18:28:33.133Z,25.20
2023-04-17T18:31:04.907Z,26.42
2023-04-17T18:33:36.892Z,25.42
2023-04-17T18:36:09.034Z,25.35
2023-04-17T18:38:40.901Z,23.35
2023-04-17T18:41:12.721Z,22.10
2023-04-17T18:43:44.801Z,22.05
2023-04-17T18:46:21.689Z,24.33
2023-04-17T18:48:53.511Z,27.13
2023-04-17T18:51:26.130Z,26.40
2023-04-17T18:53:57.875Z,21.98
2023-04-17T18:56:30.343Z,24.30
2023-04-17T18:59:02.873Z,26.00
2023-04-17T19:01:34.766Z,22.70
2023-04-17T19:06:43.882Z,22.30
2023-04-17T19:09:15.642Z,25.48
2023-04-17T19:11:47.653Z,23.92
2023-04-17T19:14:19.370Z,26.75
2023-04-17T19:16:52.058Z,27.67
2023-04-17T19:19:28.397Z,25.13
2023-04-17T19:22:01.110Z,29.02
2023-04-17T19:24:34.499Z,26.98
2023-04-17T19:27:06.384Z,24.25
2023-04-17T19:29:40.243Z,27.23
2023-04-17T19:32:13.196Z,28.08
2023-04-17T19:34:45.054Z,25.20
2023-04-17T19:37:16.819Z,25.33
2023-04-17T19:39:48.606Z,28.63
2023-04-17T19:42:20.469Z,24.70
2023-04-17T19:44:52.276Z,24.73
2023-04-17T19:47:24.493Z,25.48
2023-04-17T19:49:56.414Z,25.48
2023-04-17T19:52:29.055Z,27.75
2023-04-17T19:55:01.522Z,25.23
2023-04-17T19:57:35.524Z,25.92
2023-04-17T20:00:08.580Z,27.25
2023-04-17T20:02:44.625Z,26.27
2023-04-17T20:05:18.155Z,26.08
2023-04-17T20:07:50.787Z,29.45
2023-04-17T20:10:22.646Z,25.42
2023-04-17T20:12:54.415Z,26.80
2023-04-17T20:15:26.098Z,26.80
2023-04-17T20:17:57.849Z,26.42
2023-04-17T20:20:29.768Z,24.70
2023-04-17T20:23:01.678Z,25.45
2023-04-17T20:25:33.576Z,31.17
2023-04-17T20:28:05.626Z,27.15
2023-04-17T20:30:37.398Z,26.35
2023-04-17T20:33:09.225Z,25.30
2023-04-17T20:35:42.315Z,27.10
2023-04-17T20:38:14.534Z,27.85
2023-04-17T20:40:46.209Z,27.55
2023-04-17T20:43:18.115Z,26.08
2023-04-17T20:45:50.173Z,25.70
2023-04-17T20:48:22.111Z,27.65
2023-04-17T20:50:53.857Z,28.02
2023-04-17T20:53:25.624Z,25.98
2023-04-17T20:55:58.000Z,24.35
2023-04-17T20:58:29.803Z,25.73
2023-04-17T21:01:02.593Z,23.90
2023-04-17T21:03:34.432Z,25.55
2023-04-17T21:06:06.448Z,27.83
2023-04-17T21:08:41.308Z,25.92
2023-04-17T21:11:12.980Z,26.52
2023-04-17T21:13:44.733Z,25.30
2023-04-17T21:16:16.526Z,26.40
2023-04-17T21:18:48.310Z,25.85
2023-04-17T21:21:20.017Z,26.77
2023-04-17T21:23:51.928Z,26.88
2023-04-17T21:26:23.680Z,43.13
2023-04-17T21:28:57.365Z,27.92
2023-04-17T21:31:29.153Z,25.27
2023-04-17T21:34:00.930Z,27.75
2023-04-17T21:36:32.841Z,28.63
2023-04-17T21:39:04.596Z,26.90
2023-04-17T21:41:38.999Z,25.92
2023-04-17T21:44:11.012Z,26.30
2023-04-17T21:46:48.719Z,26.92
2023-04-17T21:49:21.089Z,26.80
2023-04-17T21:51:52.754Z,26.95
2023-04-17T21:54:26.734Z,25.45
2023-04-17T21:56:58.433Z,27.42
2023-04-17T21:59:30.773Z,25.58
2023-04-17T22:02:03.899Z,24.95
2023-04-17T22:04:35.784Z,25.30
2023-04-17T22:07:09.101Z,27.90
2023-04-17T22:09:40.750Z,28.15
2023-04-17T22:12:20.748Z,26.65
2023-04-17T22:14:52.556Z,26.30
2023-04-17T22:17:24.268Z,26.63
2023-04-17T22:19:56.191Z,25.65
2023-04-17T22:22:27.901Z,25.30
2023-04-17T22:24:59.578Z,28.33
2023-04-17T22:27:31.295Z,28.17
2023-04-17T22:30:04.119Z,25.70
2023-04-17T22:32:38.628Z,26.83
2023-04-17T22:35:10.489Z,27.65
2023-04-17T22:37:42.330Z,27.52
2023-04-17T22:40:14.098Z,29.77
2023-04-17T22:42:45.773Z,27.55
2023-04-17T22:45:17.539Z,30.10
2023-04-17T22:47:49.269Z,27.90
2023-04-17T22:50:21.872Z,26.95
2023-04-17T22:52:53.597Z,27.77
2023-04-17T22:55:25.306Z,28.95
2023-04-17T22:57:56.963Z,26.02
2023-04-17T23:00:31.890Z,28.08
2023-04-17T23:03:03.664Z,28.48
2023-04-17T23:05:37.785Z,28.30
2023-04-17T23:08:09.468Z,27.73
2023-04-17T23:10:41.156Z,26.92
2023-04-17T23:13:12.933Z,29.17
2023-04-17T23:15:44.729Z,27.42
2023-04-17T23:18:16.469Z,27.95
2023-04-17T23:20:48.155Z,26.98
2023-04-17T23:23:20.119Z,30.80
2023-04-17T23:25:54.899Z,26.55
2023-04-17T23:33:37.597Z,27.52
2023-04-17T23:36:09.376Z,30.17
2023-04-17T23:38:41.104Z,29.63
2023-04-17T23:41:12.830Z,29.05
2023-04-17T23:43:47.236Z,29.77
2023-04-17T23:46:18.973Z,30.80
2023-04-17T23:48:50.832Z,27.90
2023-04-17T23:51:22.575Z,29.38
2023-04-17T23:53:54.473Z,27.23
2023-04-17T23:56:28.970Z,31.65
2023-04-17T23:59:00.716Z,31.95
